WZZ341 LEVC-EPKK
Flight info
| Callsign | WZZ341 |
|---|---|
| Flight time | 2h 51m |
| Altitude | 34000 |
| Route | ORVUS DCT GODOX DCT EDULI DCT PTC/N0440F360 DCT MHN DCT ISTER DCT LUNOR DCT NESUL DCT NEGAT DCT OMEDA DCT RAPUR DCT TORTU DCT ERTEV/N0435F350 DCT EVAXI DCT ABTAN DCT INLOX DCT LEDVA DCT NETIR |
| Aircraft | A321/M-SDE1E2E3FGIJ1J4RWXY/LB1 |
Departure
| Time | 2026-05-06 13:38 |
|---|---|
| Airport | Valencia Airport (LEVC) |
Arrival
| Time | 2026-05-06 16:30 |
|---|---|
| Airport | Kraków John Paul II International Airport (EPKK) |
| Time | Latitude | Longitude | Altitude | Speed | Heading |
|---|---|---|---|---|---|
| 2026-05-06 12:41 | 39.49259 | -0.47841 | 209 ft | 0 kts | 206° |
| 2026-05-06 13:18 | 39.49275 | -0.47831 | 215 ft | 4 kts | 206° |
| 2026-05-06 13:18 | 39.49289 | -0.47822 | 215 ft | 0 kts | 219° |
| 2026-05-06 13:20 | 39.49261 | -0.47840 | 209 ft | 0 kts | 206° |
| 2026-05-06 13:22 | 39.49271 | -0.47834 | 216 ft | 4 kts | 211° |
| 2026-05-06 13:22 | 39.49291 | -0.47813 | 212 ft | 4 kts | 240° |
| 2026-05-06 13:22 | 39.49296 | -0.47783 | 209 ft | 4 kts | 290° |
| 2026-05-06 13:23 | 39.49294 | -0.47776 | 217 ft | 0 kts | 295° |
| 2026-05-06 13:26 | 39.49295 | -0.47777 | 209 ft | 1 kts | 295° |
| 2026-05-06 13:26 | 39.49299 | -0.47789 | 213 ft | 2 kts | 295° |
| 2026-05-06 13:26 | 39.49308 | -0.47815 | 217 ft | 4 kts | 294° |
| 2026-05-06 13:26 | 39.49321 | -0.47852 | 215 ft | 5 kts | 294° |
| 2026-05-06 13:27 | 39.49338 | -0.47901 | 214 ft | 7 kts | 295° |
| 2026-05-06 13:27 | 39.49349 | -0.47949 | 209 ft | 5 kts | 261° |
| 2026-05-06 13:27 | 39.49325 | -0.47981 | 215 ft | 5 kts | 211° |
| 2026-05-06 13:27 | 39.49287 | -0.48007 | 219 ft | 7 kts | 206° |
| 2026-05-06 13:28 | 39.49242 | -0.48035 | 211 ft | 8 kts | 206° |
| 2026-05-06 13:28 | 39.49196 | -0.48069 | 209 ft | 7 kts | 220° |
| 2026-05-06 13:28 | 39.49166 | -0.48127 | 211 ft | 8 kts | 229° |
| 2026-05-06 13:28 | 39.49148 | -0.48198 | 217 ft | 9 kts | 278° |
| 2026-05-06 13:29 | 39.49175 | -0.48274 | 209 ft | 10 kts | 297° |
| 2026-05-06 13:29 | 39.49208 | -0.48357 | 215 ft | 11 kts | 297° |
| 2026-05-06 13:29 | 39.49243 | -0.48450 | 211 ft | 12 kts | 294° |
| 2026-05-06 13:29 | 39.49280 | -0.48549 | 215 ft | 13 kts | 296° |
| 2026-05-06 13:30 | 39.49320 | -0.48655 | 211 ft | 14 kts | 296° |
| 2026-05-06 13:30 | 39.49363 | -0.48768 | 218 ft | 15 kts | 296° |
| 2026-05-06 13:30 | 39.49408 | -0.48887 | 211 ft | 15 kts | 296° |
| 2026-05-06 13:30 | 39.49455 | -0.49011 | 217 ft | 16 kts | 296° |
| 2026-05-06 13:31 | 39.49505 | -0.49143 | 214 ft | 17 kts | 296° |
| 2026-05-06 13:31 | 39.49555 | -0.49275 | 211 ft | 16 kts | 296° |
| 2026-05-06 13:31 | 39.49605 | -0.49408 | 214 ft | 17 kts | 296° |
| 2026-05-06 13:31 | 39.49658 | -0.49546 | 212 ft | 17 kts | 296° |
| 2026-05-06 13:32 | 39.49711 | -0.49688 | 212 ft | 18 kts | 296° |
| 2026-05-06 13:32 | 39.49759 | -0.49816 | 209 ft | 14 kts | 297° |
| 2026-05-06 13:32 | 39.49796 | -0.49908 | 210 ft | 9 kts | 296° |
| 2026-05-06 13:32 | 39.49821 | -0.49982 | 217 ft | 7 kts | 291° |
| 2026-05-06 13:33 | 39.49824 | -0.50039 | 215 ft | 1 kts | 258° |
| 2026-05-06 13:33 | 39.49821 | -0.50048 | 213 ft | 2 kts | 252° |
| 2026-05-06 13:33 | 39.49821 | -0.50051 | 212 ft | 0 kts | 250° |
| 2026-05-06 13:34 | 39.49820 | -0.50053 | 212 ft | 1 kts | 248° |
| 2026-05-06 13:34 | 39.49816 | -0.50062 | 215 ft | 1 kts | 237° |
| 2026-05-06 13:34 | 39.49808 | -0.50071 | 216 ft | 1 kts | 219° |
| 2026-05-06 13:34 | 39.49799 | -0.50076 | 213 ft | 1 kts | 204° |
| 2026-05-06 13:35 | 39.49792 | -0.50080 | 213 ft | 1 kts | 201° |
| 2026-05-06 13:35 | 39.49786 | -0.50082 | 214 ft | 1 kts | 200° |
| 2026-05-06 13:35 | 39.49781 | -0.50085 | 214 ft | 1 kts | 199° |
| 2026-05-06 13:35 | 39.49769 | -0.50088 | 212 ft | 3 kts | 189° |
| 2026-05-06 13:36 | 39.49749 | -0.50086 | 211 ft | 2 kts | 170° |
| 2026-05-06 13:36 | 39.49738 | -0.50082 | 211 ft | 1 kts | 164° |
| 2026-05-06 13:36 | 39.49720 | -0.50074 | 216 ft | 4 kts | 159° |
| 2026-05-06 13:36 | 39.49684 | -0.50053 | 220 ft | 7 kts | 155° |
| 2026-05-06 13:37 | 39.49639 | -0.50014 | 213 ft | 9 kts | 133° |
| 2026-05-06 13:37 | 39.49616 | -0.49964 | 217 ft | 0 kts | 115° |
| 2026-05-06 13:37 | 39.49616 | -0.49962 | 217 ft | 0 kts | 115° |
| 2026-05-06 13:37 | 39.49543 | -0.49768 | 216 ft | 59 kts | 116° |
| 2026-05-06 13:38 | 39.49260 | -0.49026 | 217 ft | 121 kts | 116° |
| 2026-05-06 13:38 | 39.48816 | -0.47857 | 266 ft | 161 kts | 116° |
| 2026-05-06 13:38 | 39.48310 | -0.46569 | 824 ft | 161 kts | 117° |
| 2026-05-06 13:38 | 39.47774 | -0.45267 | 1366 ft | 167 kts | 118° |
| 2026-05-06 13:39 | 39.47177 | -0.43929 | 1917 ft | 174 kts | 127° |
| 2026-05-06 13:39 | 39.46378 | -0.42703 | 2325 ft | 186 kts | 128° |
| 2026-05-06 13:39 | 39.45532 | -0.41314 | 2508 ft | 208 kts | 127° |
| 2026-05-06 13:39 | 39.44608 | -0.39762 | 2690 ft | 234 kts | 128° |
| 2026-05-06 13:40 | 39.43584 | -0.38034 | 3183 ft | 247 kts | 128° |
| 2026-05-06 13:40 | 39.42520 | -0.36240 | 3849 ft | 255 kts | 128° |
| 2026-05-06 13:40 | 39.41421 | -0.34394 | 4555 ft | 262 kts | 128° |
| 2026-05-06 13:40 | 39.40300 | -0.32504 | 5249 ft | 268 kts | 127° |
| 2026-05-06 13:41 | 39.39548 | -0.30287 | 5901 ft | 275 kts | 100° |
| 2026-05-06 13:41 | 39.39321 | -0.27804 | 6560 ft | 281 kts | 95° |
| 2026-05-06 13:41 | 39.39192 | -0.25259 | 7184 ft | 287 kts | 94° |
| 2026-05-06 13:41 | 39.39084 | -0.22647 | 7849 ft | 292 kts | 94° |
| 2026-05-06 13:42 | 39.38952 | -0.20008 | 8559 ft | 295 kts | 95° |
| 2026-05-06 13:42 | 39.38782 | -0.17339 | 9233 ft | 300 kts | 95° |
| 2026-05-06 13:42 | 39.38574 | -0.14633 | 9912 ft | 305 kts | 97° |
| 2026-05-06 13:42 | 39.38333 | -0.11860 | 10301 ft | 320 kts | 97° |
| 2026-05-06 13:43 | 39.38061 | -0.08911 | 10440 ft | 342 kts | 97° |
| 2026-05-06 13:43 | 39.37767 | -0.05780 | 10760 ft | 356 kts | 97° |
| 2026-05-06 13:43 | 39.37468 | -0.02578 | 11335 ft | 361 kts | 97° |
| 2026-05-06 13:43 | 39.37167 | 0.00664 | 11951 ft | 365 kts | 97° |
| 2026-05-06 13:44 | 39.36863 | 0.03941 | 12562 ft | 370 kts | 97° |
| 2026-05-06 13:44 | 39.36554 | 0.07255 | 13171 ft | 374 kts | 98° |
| 2026-05-06 13:44 | 39.36242 | 0.10604 | 13773 ft | 378 kts | 98° |
| 2026-05-06 13:44 | 39.35926 | 0.13995 | 14311 ft | 382 kts | 98° |
| 2026-05-06 13:45 | 39.35607 | 0.17420 | 14854 ft | 386 kts | 98° |
| 2026-05-06 13:45 | 39.34955 | 0.24324 | 15934 ft | 393 kts | 98° |
| 2026-05-06 13:45 | 39.34621 | 0.27855 | 16498 ft | 397 kts | 98° |
| 2026-05-06 13:46 | 39.34284 | 0.31405 | 17041 ft | 400 kts | 98° |
| 2026-05-06 13:46 | 39.33943 | 0.34998 | 17578 ft | 404 kts | 99° |
| 2026-05-06 13:46 | 39.33595 | 0.38626 | 18112 ft | 408 kts | 99° |
| 2026-05-06 13:46 | 39.33246 | 0.42274 | 18603 ft | 412 kts | 98° |
| 2026-05-06 13:47 | 39.33083 | 0.46003 | 19053 ft | 417 kts | 92° |
| 2026-05-06 13:47 | 39.33152 | 0.49757 | 19522 ft | 421 kts | 88° |
| 2026-05-06 13:47 | 39.33368 | 0.53544 | 19996 ft | 424 kts | 86° |
| 2026-05-06 13:47 | 39.33646 | 0.57366 | 20472 ft | 428 kts | 85° |
| 2026-05-06 13:48 | 39.33920 | 0.61162 | 20942 ft | 431 kts | 86° |
| 2026-05-06 13:48 | 39.34166 | 0.65041 | 21414 ft | 434 kts | 87° |
| 2026-05-06 13:48 | 39.34374 | 0.68949 | 21880 ft | 438 kts | 88° |
| 2026-05-06 13:48 | 39.34550 | 0.72888 | 22335 ft | 441 kts | 88° |
| 2026-05-06 13:49 | 39.34707 | 0.76862 | 22767 ft | 444 kts | 89° |
| 2026-05-06 13:49 | 39.34858 | 0.80872 | 23185 ft | 448 kts | 89° |
| 2026-05-06 13:49 | 39.35015 | 0.84921 | 23580 ft | 452 kts | 89° |
| 2026-05-06 13:49 | 39.35179 | 0.88986 | 23910 ft | 455 kts | 89° |
| 2026-05-06 13:50 | 39.35347 | 0.93086 | 24262 ft | 458 kts | 89° |
| 2026-05-06 13:50 | 39.35519 | 0.97206 | 24602 ft | 461 kts | 89° |
| 2026-05-06 13:50 | 39.35693 | 1.01319 | 24938 ft | 464 kts | 89° |
| 2026-05-06 13:50 | 39.35869 | 1.05490 | 25273 ft | 467 kts | 89° |
| 2026-05-06 13:51 | 39.36044 | 1.09697 | 25602 ft | 469 kts | 89° |
| 2026-05-06 13:51 | 39.36216 | 1.13919 | 25933 ft | 472 kts | 89° |
| 2026-05-06 13:51 | 39.36387 | 1.18164 | 26251 ft | 474 kts | 89° |
| 2026-05-06 13:51 | 39.36555 | 1.22431 | 26573 ft | 477 kts | 89° |
| 2026-05-06 13:52 | 39.36718 | 1.26732 | 26890 ft | 480 kts | 89° |
| 2026-05-06 13:52 | 39.36879 | 1.31057 | 27209 ft | 482 kts | 90° |
| 2026-05-06 13:52 | 39.37040 | 1.35403 | 27524 ft | 485 kts | 90° |
| 2026-05-06 13:52 | 39.37202 | 1.39716 | 27829 ft | 487 kts | 90° |
| 2026-05-06 13:53 | 39.37370 | 1.44106 | 28138 ft | 490 kts | 90° |
| 2026-05-06 13:53 | 39.37539 | 1.48519 | 28442 ft | 492 kts | 90° |
| 2026-05-06 13:53 | 39.37706 | 1.52947 | 28717 ft | 495 kts | 90° |
| 2026-05-06 13:53 | 39.37869 | 1.57413 | 29022 ft | 497 kts | 90° |
| 2026-05-06 13:54 | 39.38030 | 1.61847 | 29311 ft | 499 kts | 90° |
| 2026-05-06 13:54 | 39.38189 | 1.66340 | 29600 ft | 501 kts | 90° |
| 2026-05-06 13:54 | 39.38346 | 1.70857 | 29884 ft | 504 kts | 90° |
| 2026-05-06 13:54 | 39.38502 | 1.75394 | 30145 ft | 506 kts | 90° |
| 2026-05-06 13:55 | 39.38658 | 1.79957 | 30395 ft | 508 kts | 90° |
| 2026-05-06 13:55 | 39.38814 | 1.84527 | 30649 ft | 510 kts | 90° |
| 2026-05-06 13:55 | 39.38971 | 1.89120 | 30990 ft | 509 kts | 90° |
| 2026-05-06 13:55 | 39.39125 | 1.93696 | 31342 ft | 508 kts | 90° |
| 2026-05-06 13:56 | 39.39273 | 1.98204 | 31707 ft | 507 kts | 90° |
| 2026-05-06 13:56 | 39.39419 | 2.02760 | 32065 ft | 506 kts | 90° |
| 2026-05-06 13:56 | 39.39562 | 2.07316 | 32415 ft | 506 kts | 91° |
| 2026-05-06 13:56 | 39.39705 | 2.11850 | 32746 ft | 505 kts | 91° |
| 2026-05-06 13:57 | 39.39848 | 2.16406 | 33072 ft | 505 kts | 91° |
| 2026-05-06 13:57 | 39.39988 | 2.20952 | 33402 ft | 504 kts | 91° |
| 2026-05-06 13:57 | 39.40126 | 2.25431 | 33727 ft | 504 kts | 91° |
| 2026-05-06 13:57 | 39.40264 | 2.29976 | 33906 ft | 504 kts | 91° |
| 2026-05-06 13:58 | 39.40527 | 2.38982 | 33943 ft | 503 kts | 91° |
| 2026-05-06 13:58 | 39.40789 | 2.48022 | 33944 ft | 503 kts | 91° |
| 2026-05-06 13:59 | 39.40999 | 2.55533 | 33945 ft | 502 kts | 91° |
| 2026-05-06 13:59 | 39.41243 | 2.64567 | 33945 ft | 502 kts | 91° |
| 2026-05-06 14:00 | 39.41486 | 2.73597 | 33949 ft | 502 kts | 91° |
| 2026-05-06 14:00 | 39.41727 | 2.82618 | 33945 ft | 502 kts | 91° |
| 2026-05-06 14:01 | 39.41950 | 2.91642 | 33948 ft | 501 kts | 91° |
| 2026-05-06 14:01 | 39.42164 | 3.00661 | 33947 ft | 501 kts | 91° |
| 2026-05-06 14:02 | 39.42373 | 3.09609 | 33950 ft | 500 kts | 91° |
| 2026-05-06 14:02 | 39.42596 | 3.18592 | 33948 ft | 500 kts | 89° |
| 2026-05-06 14:03 | 39.44031 | 3.27426 | 33948 ft | 505 kts | 70° |
| 2026-05-06 14:03 | 39.47269 | 3.35483 | 33951 ft | 505 kts | 58° |
| 2026-05-06 14:04 | 39.50876 | 3.43295 | 33950 ft | 506 kts | 59° |
| 2026-05-06 14:04 | 39.54440 | 3.51110 | 33950 ft | 506 kts | 59° |
| 2026-05-06 14:05 | 39.58018 | 3.58971 | 33953 ft | 506 kts | 59° |
| 2026-05-06 14:05 | 39.61606 | 3.66836 | 33954 ft | 506 kts | 59° |
| 2026-05-06 14:06 | 39.65193 | 3.74694 | 33952 ft | 506 kts | 59° |
| 2026-05-06 14:06 | 39.68752 | 3.82522 | 33946 ft | 506 kts | 59° |
| 2026-05-06 14:07 | 39.72318 | 3.90401 | 33959 ft | 505 kts | 59° |
| 2026-05-06 14:07 | 39.75870 | 3.98275 | 33963 ft | 506 kts | 59° |
| 2026-05-06 14:08 | 39.79423 | 4.06160 | 33971 ft | 506 kts | 59° |
| 2026-05-06 14:08 | 39.82975 | 4.14066 | 33975 ft | 506 kts | 59° |
| 2026-05-06 14:09 | 39.86522 | 4.21981 | 33968 ft | 506 kts | 59° |
| 2026-05-06 14:09 | 39.90073 | 4.29892 | 33975 ft | 506 kts | 59° |
| 2026-05-06 14:10 | 39.93620 | 4.37799 | 33971 ft | 505 kts | 59° |
| 2026-05-06 14:10 | 39.97164 | 4.45724 | 33962 ft | 507 kts | 60° |
| 2026-05-06 14:11 | 40.00704 | 4.53678 | 33962 ft | 507 kts | 60° |
| 2026-05-06 14:11 | 40.04233 | 4.61642 | 33961 ft | 506 kts | 60° |
| 2026-05-06 14:12 | 40.07760 | 4.69607 | 33956 ft | 505 kts | 60° |
| 2026-05-06 14:12 | 40.11269 | 4.77512 | 33959 ft | 505 kts | 60° |
| 2026-05-06 14:13 | 40.14795 | 4.85462 | 33959 ft | 505 kts | 60° |
| 2026-05-06 14:13 | 40.18310 | 4.93433 | 33960 ft | 507 kts | 60° |
| 2026-05-06 14:14 | 40.21821 | 5.01429 | 33962 ft | 506 kts | 60° |
| 2026-05-06 14:14 | 40.25322 | 5.09417 | 33962 ft | 506 kts | 60° |
| 2026-05-06 14:15 | 40.28823 | 5.17407 | 33964 ft | 506 kts | 60° |
| 2026-05-06 14:15 | 40.32313 | 5.25409 | 33962 ft | 506 kts | 60° |
| 2026-05-06 14:16 | 40.35794 | 5.33415 | 33957 ft | 506 kts | 60° |
| 2026-05-06 14:16 | 40.39273 | 5.41439 | 33961 ft | 506 kts | 60° |
| 2026-05-06 14:17 | 40.42752 | 5.49475 | 33961 ft | 506 kts | 60° |
| 2026-05-06 14:17 | 40.46200 | 5.57449 | 33962 ft | 506 kts | 60° |
| 2026-05-06 14:18 | 40.49662 | 5.65487 | 33961 ft | 506 kts | 61° |
| 2026-05-06 14:18 | 40.53113 | 5.73531 | 33953 ft | 505 kts | 61° |
| 2026-05-06 14:19 | 40.56552 | 5.81568 | 33960 ft | 504 kts | 61° |
| 2026-05-06 14:19 | 40.59986 | 5.89597 | 33961 ft | 504 kts | 61° |
| 2026-05-06 14:20 | 40.63412 | 5.97636 | 33962 ft | 504 kts | 61° |
| 2026-05-06 14:20 | 40.66832 | 6.05687 | 33961 ft | 504 kts | 61° |
| 2026-05-06 14:21 | 40.70245 | 6.13739 | 33966 ft | 502 kts | 62° |
| 2026-05-06 14:21 | 40.73641 | 6.21770 | 33959 ft | 501 kts | 62° |
| 2026-05-06 14:22 | 40.77034 | 6.29820 | 33961 ft | 502 kts | 62° |
| 2026-05-06 14:22 | 40.80429 | 6.37896 | 33961 ft | 503 kts | 62° |
| 2026-05-06 14:23 | 40.83819 | 6.45978 | 33961 ft | 503 kts | 62° |
| 2026-05-06 14:23 | 40.87172 | 6.54001 | 33959 ft | 501 kts | 62° |
| 2026-05-06 14:24 | 40.90534 | 6.62080 | 33960 ft | 501 kts | 62° |
| 2026-05-06 14:24 | 40.93892 | 6.70162 | 33989 ft | 501 kts | 63° |
| 2026-05-06 14:25 | 40.97251 | 6.78264 | 33966 ft | 503 kts | 63° |
| 2026-05-06 14:25 | 41.00608 | 6.86380 | 33953 ft | 502 kts | 63° |
| 2026-05-06 14:26 | 41.03960 | 6.94490 | 33963 ft | 502 kts | 63° |
| 2026-05-06 14:26 | 41.07296 | 7.02608 | 33961 ft | 502 kts | 63° |
| 2026-05-06 14:27 | 41.10625 | 7.10746 | 33963 ft | 501 kts | 63° |
| 2026-05-06 14:27 | 41.13929 | 7.18834 | 33957 ft | 502 kts | 63° |
| 2026-05-06 14:28 | 41.17263 | 7.26996 | 33958 ft | 503 kts | 63° |
| 2026-05-06 14:28 | 41.20595 | 7.35164 | 33961 ft | 503 kts | 63° |
| 2026-05-06 14:29 | 41.23912 | 7.43344 | 33961 ft | 503 kts | 63° |
| 2026-05-06 14:29 | 41.27219 | 7.51534 | 33961 ft | 503 kts | 63° |
| 2026-05-06 14:30 | 41.30503 | 7.59670 | 33947 ft | 503 kts | 64° |
| 2026-05-06 14:30 | 41.33810 | 7.67872 | 33962 ft | 504 kts | 64° |
| 2026-05-06 14:31 | 41.37114 | 7.76108 | 33961 ft | 504 kts | 64° |
| 2026-05-06 14:31 | 41.41241 | 7.83630 | 33961 ft | 506 kts | 44° |
| 2026-05-06 14:32 | 41.46880 | 7.89164 | 33961 ft | 504 kts | 25° |
| 2026-05-06 14:32 | 41.53325 | 7.92781 | 33959 ft | 502 kts | 19° |
| 2026-05-06 14:33 | 41.59807 | 7.96268 | 33961 ft | 503 kts | 19° |
| 2026-05-06 14:33 | 41.66268 | 7.99771 | 33962 ft | 504 kts | 19° |
| 2026-05-06 14:34 | 41.72775 | 8.03295 | 33964 ft | 505 kts | 19° |
| 2026-05-06 14:34 | 41.79282 | 8.06830 | 33958 ft | 505 kts | 19° |
| 2026-05-06 14:35 | 41.85801 | 8.10374 | 33959 ft | 505 kts | 19° |
| 2026-05-06 14:35 | 41.92327 | 8.13916 | 33980 ft | 505 kts | 19° |
| 2026-05-06 14:36 | 41.98849 | 8.17470 | 33959 ft | 505 kts | 19° |
| 2026-05-06 14:36 | 42.05354 | 8.21033 | 33958 ft | 505 kts | 19° |
| 2026-05-06 14:37 | 42.11820 | 8.24578 | 33977 ft | 505 kts | 19° |
| 2026-05-06 14:37 | 42.18335 | 8.28153 | 33952 ft | 506 kts | 19° |
| 2026-05-06 14:38 | 42.24859 | 8.31738 | 33952 ft | 506 kts | 19° |
| 2026-05-06 14:38 | 42.31372 | 8.35336 | 33945 ft | 506 kts | 19° |
| 2026-05-06 14:39 | 42.37891 | 8.38956 | 33947 ft | 507 kts | 19° |
| 2026-05-06 14:39 | 42.44411 | 8.42575 | 33946 ft | 507 kts | 19° |
| 2026-05-06 14:40 | 42.50951 | 8.46203 | 33943 ft | 507 kts | 19° |
| 2026-05-06 14:40 | 42.57482 | 8.49836 | 33943 ft | 507 kts | 19° |
| 2026-05-06 14:41 | 42.64013 | 8.53480 | 33945 ft | 507 kts | 19° |
| 2026-05-06 14:41 | 42.70501 | 8.57107 | 33969 ft | 507 kts | 19° |
| 2026-05-06 14:42 | 42.77035 | 8.60766 | 33942 ft | 508 kts | 19° |
| 2026-05-06 14:42 | 42.83589 | 8.64438 | 33926 ft | 509 kts | 19° |
| 2026-05-06 14:43 | 42.90131 | 8.68129 | 33954 ft | 509 kts | 19° |
| 2026-05-06 14:43 | 42.96684 | 8.71832 | 33906 ft | 510 kts | 19° |
| 2026-05-06 14:44 | 43.03251 | 8.75540 | 33920 ft | 510 kts | 19° |
| 2026-05-06 14:45 | 43.13074 | 8.81110 | 33919 ft | 511 kts | 20° |
| 2026-05-06 14:45 | 43.19634 | 8.84856 | 33914 ft | 511 kts | 20° |
| 2026-05-06 14:46 | 43.26150 | 8.88568 | 33911 ft | 511 kts | 19° |
| 2026-05-06 14:46 | 43.32733 | 8.92318 | 33902 ft | 512 kts | 19° |
| 2026-05-06 14:47 | 43.39468 | 8.95265 | 33906 ft | 504 kts | 5° |
| 2026-05-06 14:47 | 43.46389 | 8.95835 | 33904 ft | 496 kts | 354° |
| 2026-05-06 14:48 | 43.52135 | 8.95848 | 33889 ft | 499 kts | 357° |
| 2026-05-06 14:48 | 43.55578 | 8.96720 | 33900 ft | 510 kts | 18° |
| 2026-05-06 14:48 | 43.58773 | 8.98936 | 33895 ft | 516 kts | 31° |
| 2026-05-06 14:49 | 43.64717 | 9.04529 | 33891 ft | 517 kts | 30° |
| 2026-05-06 14:49 | 43.70876 | 9.09703 | 33862 ft | 519 kts | 29° |
| 2026-05-06 14:50 | 43.77049 | 9.14894 | 33894 ft | 519 kts | 29° |
| 2026-05-06 14:50 | 43.80049 | 9.17682 | 33882 ft | 520 kts | 41° |
| 2026-05-06 14:50 | 43.82682 | 9.21120 | 33897 ft | 520 kts | 44° |
| 2026-05-06 14:51 | 43.87862 | 9.28133 | 33893 ft | 522 kts | 45° |
| 2026-05-06 14:51 | 43.93045 | 9.35200 | 33899 ft | 522 kts | 45° |
| 2026-05-06 14:52 | 43.98234 | 9.42257 | 33906 ft | 522 kts | 45° |
| 2026-05-06 14:52 | 44.03423 | 9.49316 | 33911 ft | 520 kts | 44° |
| 2026-05-06 14:53 | 44.08574 | 9.56338 | 33918 ft | 518 kts | 44° |
| 2026-05-06 14:53 | 44.13675 | 9.63316 | 33922 ft | 518 kts | 45° |
| 2026-05-06 14:54 | 44.18804 | 9.70377 | 33927 ft | 517 kts | 45° |
| 2026-05-06 14:54 | 44.23916 | 9.77439 | 33926 ft | 517 kts | 45° |
| 2026-05-06 14:55 | 44.29023 | 9.84484 | 33895 ft | 516 kts | 44° |
| 2026-05-06 14:55 | 44.34132 | 9.91544 | 33891 ft | 516 kts | 44° |
| 2026-05-06 14:56 | 44.39229 | 9.98605 | 33908 ft | 515 kts | 45° |
| 2026-05-06 14:56 | 44.44268 | 10.05617 | 33903 ft | 515 kts | 45° |
| 2026-05-06 14:57 | 44.49350 | 10.12715 | 33897 ft | 515 kts | 45° |
| 2026-05-06 14:57 | 44.54423 | 10.19816 | 33932 ft | 515 kts | 45° |
| 2026-05-06 14:58 | 44.59526 | 10.26967 | 33886 ft | 520 kts | 45° |
| 2026-05-06 14:58 | 44.64622 | 10.34121 | 33901 ft | 521 kts | 45° |
| 2026-05-06 14:59 | 44.69738 | 10.41336 | 33892 ft | 521 kts | 45° |
| 2026-05-06 14:59 | 44.74859 | 10.48571 | 33886 ft | 521 kts | 45° |
| 2026-05-06 15:00 | 44.79958 | 10.55797 | 33893 ft | 521 kts | 45° |
| 2026-05-06 15:00 | 44.85063 | 10.63050 | 33890 ft | 521 kts | 45° |
| 2026-05-06 15:01 | 44.90159 | 10.70303 | 33886 ft | 519 kts | 45° |
| 2026-05-06 15:01 | 44.95223 | 10.77523 | 33893 ft | 515 kts | 45° |
| 2026-05-06 15:02 | 45.00244 | 10.84734 | 33893 ft | 514 kts | 45° |
| 2026-05-06 15:02 | 45.05252 | 10.91945 | 33892 ft | 514 kts | 45° |
| 2026-05-06 15:03 | 45.10277 | 10.99175 | 33895 ft | 517 kts | 45° |
| 2026-05-06 15:03 | 45.15322 | 11.06450 | 33893 ft | 517 kts | 45° |
| 2026-05-06 15:04 | 45.20335 | 11.13701 | 33893 ft | 518 kts | 45° |
| 2026-05-06 15:04 | 45.25381 | 11.21027 | 33886 ft | 520 kts | 45° |
| 2026-05-06 15:05 | 45.30448 | 11.28399 | 33895 ft | 522 kts | 45° |
| 2026-05-06 15:05 | 45.35516 | 11.35797 | 33895 ft | 522 kts | 45° |
| 2026-05-06 15:06 | 45.40583 | 11.43218 | 33901 ft | 522 kts | 46° |
| 2026-05-06 15:06 | 45.45653 | 11.50656 | 33894 ft | 523 kts | 46° |
| 2026-05-06 15:07 | 45.50712 | 11.58084 | 33895 ft | 522 kts | 46° |
| 2026-05-06 15:07 | 45.55765 | 11.65535 | 33894 ft | 522 kts | 46° |
| 2026-05-06 15:08 | 45.60782 | 11.72973 | 33904 ft | 523 kts | 46° |
| 2026-05-06 15:08 | 45.65833 | 11.80463 | 33892 ft | 522 kts | 46° |
| 2026-05-06 15:09 | 45.70841 | 11.87909 | 33899 ft | 517 kts | 46° |
| 2026-05-06 15:09 | 45.75815 | 11.95338 | 33916 ft | 517 kts | 46° |
| 2026-05-06 15:10 | 45.80805 | 12.02795 | 33915 ft | 518 kts | 46° |
| 2026-05-06 15:10 | 45.85779 | 12.10267 | 33910 ft | 517 kts | 46° |
| 2026-05-06 15:11 | 45.90709 | 12.17695 | 33912 ft | 517 kts | 46° |
| 2026-05-06 15:11 | 45.95678 | 12.25186 | 33918 ft | 518 kts | 46° |
| 2026-05-06 15:12 | 46.00654 | 12.32694 | 33916 ft | 518 kts | 46° |
| 2026-05-06 15:12 | 46.05608 | 12.40200 | 33914 ft | 515 kts | 46° |
| 2026-05-06 15:13 | 46.10529 | 12.47697 | 33920 ft | 514 kts | 47° |
| 2026-05-06 15:13 | 46.15433 | 12.55188 | 33922 ft | 514 kts | 47° |
| 2026-05-06 15:14 | 46.20338 | 12.62691 | 33911 ft | 513 kts | 47° |
| 2026-05-06 15:14 | 46.25212 | 12.70150 | 33911 ft | 514 kts | 47° |
| 2026-05-06 15:15 | 46.30114 | 12.77683 | 33909 ft | 513 kts | 47° |
| 2026-05-06 15:15 | 46.34998 | 12.85214 | 33901 ft | 512 kts | 47° |
| 2026-05-06 15:16 | 46.39862 | 12.92743 | 33905 ft | 512 kts | 47° |
| 2026-05-06 15:16 | 46.44708 | 13.00266 | 33918 ft | 509 kts | 47° |
| 2026-05-06 15:17 | 46.49545 | 13.07798 | 33898 ft | 511 kts | 47° |
| 2026-05-06 15:17 | 46.54361 | 13.15324 | 33893 ft | 512 kts | 47° |
| 2026-05-06 15:18 | 46.59215 | 13.22906 | 33893 ft | 512 kts | 47° |
| 2026-05-06 15:18 | 46.64060 | 13.30497 | 33887 ft | 511 kts | 47° |
| 2026-05-06 15:19 | 46.68886 | 13.38089 | 33879 ft | 510 kts | 47° |
| 2026-05-06 15:19 | 46.73695 | 13.45683 | 33877 ft | 509 kts | 47° |
| 2026-05-06 15:20 | 46.78162 | 13.53689 | 33875 ft | 509 kts | 60° |
| 2026-05-06 15:20 | 46.81452 | 13.62755 | 33861 ft | 504 kts | 64° |
| 2026-05-06 15:21 | 46.84634 | 13.71852 | 33878 ft | 503 kts | 64° |
| 2026-05-06 15:21 | 46.87808 | 13.80953 | 33857 ft | 502 kts | 64° |
| 2026-05-06 15:22 | 46.90975 | 13.90063 | 33880 ft | 502 kts | 64° |
| 2026-05-06 15:22 | 46.94133 | 13.99196 | 33877 ft | 503 kts | 65° |
| 2026-05-06 15:23 | 46.97285 | 14.08334 | 33871 ft | 503 kts | 64° |
| 2026-05-06 15:23 | 47.00437 | 14.17488 | 33871 ft | 503 kts | 64° |
| 2026-05-06 15:24 | 47.03552 | 14.26584 | 33865 ft | 503 kts | 64° |
| 2026-05-06 15:24 | 47.06674 | 14.35757 | 33868 ft | 503 kts | 64° |
| 2026-05-06 15:25 | 47.09792 | 14.44937 | 33876 ft | 503 kts | 65° |
| 2026-05-06 15:25 | 47.12895 | 14.54142 | 33862 ft | 502 kts | 65° |
| 2026-05-06 15:26 | 47.15891 | 14.63385 | 33866 ft | 500 kts | 66° |
| 2026-05-06 15:26 | 47.18991 | 14.72540 | 33864 ft | 500 kts | 58° |
| 2026-05-06 15:27 | 47.23469 | 14.80329 | 33866 ft | 498 kts | 39° |
| 2026-05-06 15:27 | 47.28698 | 14.86967 | 33862 ft | 500 kts | 39° |
| 2026-05-06 15:28 | 47.33954 | 14.93692 | 33852 ft | 501 kts | 39° |
| 2026-05-06 15:28 | 47.39203 | 15.00459 | 33842 ft | 501 kts | 39° |
| 2026-05-06 15:29 | 47.44455 | 15.07242 | 33846 ft | 501 kts | 39° |
| 2026-05-06 15:29 | 47.49726 | 15.14056 | 33810 ft | 505 kts | 39° |
| 2026-05-06 15:30 | 47.55034 | 15.20932 | 33814 ft | 505 kts | 39° |
| 2026-05-06 15:30 | 47.60260 | 15.27726 | 33804 ft | 501 kts | 39° |
| 2026-05-06 15:31 | 47.65510 | 15.34581 | 33793 ft | 503 kts | 39° |
| 2026-05-06 15:31 | 47.70772 | 15.41455 | 33801 ft | 505 kts | 39° |
| 2026-05-06 15:32 | 47.78667 | 15.51802 | 33777 ft | 504 kts | 40° |
| 2026-05-06 15:32 | 47.83922 | 15.58723 | 33776 ft | 504 kts | 39° |
| 2026-05-06 15:33 | 47.89177 | 15.65671 | 33781 ft | 505 kts | 40° |
| 2026-05-06 15:33 | 47.94417 | 15.72619 | 33777 ft | 504 kts | 40° |
| 2026-05-06 15:34 | 47.98776 | 15.78398 | 33792 ft | 504 kts | 40° |
| 2026-05-06 15:34 | 48.04013 | 15.85353 | 33757 ft | 504 kts | 39° |
| 2026-05-06 15:35 | 48.09238 | 15.92326 | 33756 ft | 504 kts | 40° |
| 2026-05-06 15:35 | 48.14459 | 15.99331 | 33753 ft | 503 kts | 39° |
| 2026-05-06 15:36 | 48.19658 | 16.06314 | 33754 ft | 501 kts | 39° |
| 2026-05-06 15:36 | 48.24847 | 16.13299 | 33750 ft | 501 kts | 39° |
| 2026-05-06 15:37 | 48.29996 | 16.20257 | 33756 ft | 501 kts | 39° |
| 2026-05-06 15:37 | 48.35178 | 16.27275 | 33751 ft | 501 kts | 39° |
| 2026-05-06 15:38 | 48.40365 | 16.34314 | 33763 ft | 502 kts | 39° |
| 2026-05-06 15:38 | 48.45555 | 16.41371 | 33737 ft | 502 kts | 39° |
| 2026-05-06 15:39 | 48.50734 | 16.48433 | 33758 ft | 502 kts | 40° |
| 2026-05-06 15:39 | 48.55910 | 16.55520 | 33761 ft | 503 kts | 40° |
| 2026-05-06 15:40 | 48.61106 | 16.62654 | 33753 ft | 505 kts | 40° |
| 2026-05-06 15:40 | 48.66301 | 16.69812 | 33765 ft | 505 kts | 40° |
| 2026-05-06 15:41 | 48.71489 | 16.76985 | 33757 ft | 505 kts | 40° |
| 2026-05-06 15:41 | 48.76089 | 16.85052 | 33765 ft | 506 kts | 50° |
| 2026-05-06 15:42 | 48.80400 | 16.93390 | 33785 ft | 506 kts | 50° |
| 2026-05-06 15:42 | 48.84746 | 17.01783 | 33768 ft | 506 kts | 50° |
| 2026-05-06 15:43 | 48.89094 | 17.10189 | 33808 ft | 505 kts | 50° |
| 2026-05-06 15:43 | 48.93435 | 17.18612 | 33804 ft | 507 kts | 50° |
| 2026-05-06 15:44 | 48.97775 | 17.27076 | 33808 ft | 507 kts | 50° |
| 2026-05-06 15:44 | 49.02116 | 17.35565 | 33810 ft | 507 kts | 50° |
| 2026-05-06 15:45 | 49.06450 | 17.44072 | 33812 ft | 507 kts | 50° |
| 2026-05-06 15:45 | 49.10776 | 17.52595 | 33808 ft | 508 kts | 50° |
| 2026-05-06 15:46 | 49.15088 | 17.61096 | 33811 ft | 509 kts | 50° |
| 2026-05-06 15:46 | 49.19411 | 17.69661 | 33817 ft | 509 kts | 50° |
| 2026-05-06 15:47 | 49.23724 | 17.78234 | 33825 ft | 509 kts | 50° |
| 2026-05-06 15:47 | 49.28036 | 17.86822 | 33821 ft | 508 kts | 50° |
| 2026-05-06 15:48 | 49.32339 | 17.95437 | 33821 ft | 508 kts | 50° |
| 2026-05-06 15:48 | 49.34477 | 17.99728 | 33643 ft | 504 kts | 51° |
| 2026-05-06 15:48 | 49.36584 | 18.03962 | 33367 ft | 495 kts | 51° |
| 2026-05-06 15:49 | 49.38661 | 18.08136 | 33091 ft | 487 kts | 51° |
| 2026-05-06 15:49 | 49.40674 | 18.12186 | 32817 ft | 481 kts | 51° |
| 2026-05-06 15:49 | 49.42682 | 18.16242 | 32539 ft | 474 kts | 51° |
| 2026-05-06 15:49 | 49.44665 | 18.20257 | 32158 ft | 470 kts | 51° |
| 2026-05-06 15:50 | 49.46635 | 18.24248 | 31624 ft | 468 kts | 52° |
| 2026-05-06 15:50 | 49.48597 | 18.28224 | 31094 ft | 466 kts | 52° |
| 2026-05-06 15:50 | 49.50549 | 18.32190 | 30579 ft | 464 kts | 53° |
| 2026-05-06 15:50 | 49.52495 | 18.36150 | 30057 ft | 462 kts | 53° |
| 2026-05-06 15:51 | 49.54430 | 18.40084 | 29511 ft | 460 kts | 53° |
| 2026-05-06 15:51 | 49.56350 | 18.43987 | 29031 ft | 455 kts | 53° |
| 2026-05-06 15:51 | 49.58249 | 18.47852 | 28536 ft | 451 kts | 53° |
| 2026-05-06 15:51 | 49.60133 | 18.51696 | 28069 ft | 447 kts | 53° |
| 2026-05-06 15:52 | 49.62002 | 18.55521 | 27604 ft | 443 kts | 54° |
| 2026-05-06 15:52 | 49.63838 | 18.59297 | 27159 ft | 439 kts | 53° |
| 2026-05-06 15:52 | 49.65660 | 18.63052 | 26707 ft | 435 kts | 53° |
| 2026-05-06 15:52 | 49.67627 | 18.66570 | 26300 ft | 431 kts | 43° |
| 2026-05-06 15:53 | 49.69946 | 18.69453 | 25920 ft | 426 kts | 32° |
| 2026-05-06 15:53 | 49.72529 | 18.71625 | 25508 ft | 421 kts | 21° |
| 2026-05-06 15:53 | 49.75299 | 18.73056 | 25069 ft | 417 kts | 11° |
| 2026-05-06 15:53 | 49.78114 | 18.74098 | 24640 ft | 415 kts | 11° |
| 2026-05-06 15:54 | 49.80915 | 18.75137 | 24201 ft | 414 kts | 11° |
| 2026-05-06 15:54 | 49.83721 | 18.76183 | 23754 ft | 413 kts | 11° |
| 2026-05-06 15:54 | 49.86428 | 18.77675 | 23272 ft | 415 kts | 28° |
| 2026-05-06 15:54 | 49.88704 | 18.80378 | 22775 ft | 414 kts | 48° |
| 2026-05-06 15:55 | 49.90307 | 18.84029 | 22311 ft | 408 kts | 67° |
| 2026-05-06 15:55 | 49.91086 | 18.88149 | 21841 ft | 400 kts | 86° |
| 2026-05-06 15:55 | 49.91070 | 18.92404 | 21370 ft | 392 kts | 98° |
| 2026-05-06 15:55 | 49.90833 | 18.96605 | 20924 ft | 388 kts | 99° |
| 2026-05-06 15:56 | 49.90601 | 19.00710 | 20787 ft | 376 kts | 99° |
| 2026-05-06 15:56 | 49.90377 | 19.04712 | 20549 ft | 368 kts | 99° |
| 2026-05-06 15:56 | 49.90156 | 19.08644 | 20178 ft | 365 kts | 99° |
| 2026-05-06 15:56 | 49.89932 | 19.12546 | 19771 ft | 362 kts | 99° |
| 2026-05-06 15:57 | 49.89703 | 19.16420 | 19371 ft | 360 kts | 100° |
| 2026-05-06 15:57 | 49.89473 | 19.20274 | 18974 ft | 357 kts | 100° |
| 2026-05-06 15:57 | 49.89250 | 19.24100 | 18585 ft | 356 kts | 98° |
| 2026-05-06 15:57 | 49.89365 | 19.27943 | 18199 ft | 359 kts | 84° |
| 2026-05-06 15:58 | 49.90040 | 19.31685 | 17760 ft | 362 kts | 70° |
| 2026-05-06 15:58 | 49.91046 | 19.35256 | 17314 ft | 361 kts | 69° |
| 2026-05-06 15:58 | 49.92049 | 19.38814 | 16900 ft | 358 kts | 69° |
| 2026-05-06 15:58 | 49.93040 | 19.42360 | 16514 ft | 355 kts | 69° |
| 2026-05-06 15:59 | 49.94015 | 19.45861 | 16137 ft | 351 kts | 68° |
| 2026-05-06 15:59 | 49.94885 | 19.49376 | 15771 ft | 346 kts | 77° |
| 2026-05-06 15:59 | 49.95405 | 19.52999 | 15396 ft | 342 kts | 81° |
| 2026-05-06 15:59 | 49.95889 | 19.56607 | 15021 ft | 340 kts | 81° |
| 2026-05-06 16:00 | 49.96368 | 19.60187 | 14657 ft | 338 kts | 80° |
| 2026-05-06 16:00 | 49.96845 | 19.63751 | 14295 ft | 335 kts | 80° |
| 2026-05-06 16:00 | 49.97319 | 19.67282 | 13951 ft | 333 kts | 80° |
| 2026-05-06 16:00 | 49.97785 | 19.70740 | 13558 ft | 331 kts | 80° |
| 2026-05-06 16:01 | 49.98255 | 19.74226 | 13181 ft | 328 kts | 80° |
| 2026-05-06 16:01 | 49.98722 | 19.77678 | 12792 ft | 326 kts | 80° |
| 2026-05-06 16:01 | 49.99188 | 19.81120 | 12413 ft | 323 kts | 80° |
| 2026-05-06 16:01 | 49.99649 | 19.84524 | 11927 ft | 318 kts | 80° |
| 2026-05-06 16:02 | 50.00103 | 19.87875 | 11143 ft | 315 kts | 81° |
| 2026-05-06 16:02 | 50.00553 | 19.91177 | 10471 ft | 309 kts | 81° |
| 2026-05-06 16:02 | 50.00987 | 19.94345 | 10304 ft | 292 kts | 81° |
| 2026-05-06 16:02 | 50.01400 | 19.97386 | 10176 ft | 283 kts | 81° |
| 2026-05-06 16:03 | 50.01799 | 20.00349 | 9948 ft | 278 kts | 81° |
| 2026-05-06 16:03 | 50.02192 | 20.03267 | 9719 ft | 273 kts | 81° |
| 2026-05-06 16:03 | 50.02581 | 20.06146 | 9436 ft | 271 kts | 81° |
| 2026-05-06 16:03 | 50.02968 | 20.09005 | 9109 ft | 270 kts | 81° |
| 2026-05-06 16:04 | 50.03348 | 20.11825 | 8780 ft | 270 kts | 81° |
| 2026-05-06 16:04 | 50.03734 | 20.14698 | 8443 ft | 270 kts | 81° |
| 2026-05-06 16:04 | 50.04115 | 20.17534 | 8195 ft | 267 kts | 81° |
| 2026-05-06 16:04 | 50.04573 | 20.20349 | 7843 ft | 269 kts | 67° |
| 2026-05-06 16:05 | 50.05714 | 20.22624 | 7448 ft | 270 kts | 32° |
| 2026-05-06 16:05 | 50.07445 | 20.23630 | 7046 ft | 268 kts | 359° |
| 2026-05-06 16:05 | 50.09247 | 20.23258 | 6823 ft | 259 kts | 345° |
| 2026-05-06 16:05 | 50.11001 | 20.22610 | 6495 ft | 257 kts | 335° |
| 2026-05-06 16:06 | 50.12403 | 20.21057 | 6190 ft | 244 kts | 303° |
| 2026-05-06 16:06 | 50.13080 | 20.18718 | 5836 ft | 235 kts | 274° |
| 2026-05-06 16:06 | 50.12981 | 20.16183 | 5304 ft | 239 kts | 256° |
| 2026-05-06 16:06 | 50.12630 | 20.13629 | 4912 ft | 241 kts | 256° |
| 2026-05-06 16:07 | 50.12286 | 20.11160 | 4834 ft | 225 kts | 256° |
| 2026-05-06 16:07 | 50.11972 | 20.08888 | 4838 ft | 205 kts | 256° |
| 2026-05-06 16:07 | 50.11686 | 20.06813 | 4842 ft | 187 kts | 256° |
| 2026-05-06 16:07 | 50.11427 | 20.04922 | 4853 ft | 173 kts | 255° |
| 2026-05-06 16:08 | 50.11173 | 20.03086 | 4849 ft | 181 kts | 254° |
| 2026-05-06 16:08 | 50.10873 | 20.00971 | 4862 ft | 220 kts | 255° |
| 2026-05-06 16:08 | 50.10535 | 19.98554 | 4856 ft | 233 kts | 256° |
| 2026-05-06 16:08 | 50.10198 | 19.96103 | 4846 ft | 235 kts | 256° |
| 2026-05-06 16:09 | 50.09859 | 19.93614 | 4842 ft | 235 kts | 256° |
| 2026-05-06 16:09 | 50.09518 | 19.91121 | 4841 ft | 235 kts | 256° |
| 2026-05-06 16:09 | 50.09174 | 19.88628 | 4841 ft | 235 kts | 256° |
| 2026-05-06 16:09 | 50.08830 | 19.86142 | 4834 ft | 235 kts | 255° |
| 2026-05-06 16:10 | 50.08485 | 19.83648 | 4837 ft | 235 kts | 255° |
| 2026-05-06 16:10 | 50.08127 | 19.81082 | 4844 ft | 251 kts | 255° |
| 2026-05-06 16:10 | 50.07751 | 19.78387 | 4839 ft | 256 kts | 255° |
| 2026-05-06 16:10 | 50.07373 | 19.75665 | 4843 ft | 257 kts | 255° |
| 2026-05-06 16:11 | 50.06997 | 19.72955 | 4844 ft | 256 kts | 255° |
| 2026-05-06 16:11 | 50.06619 | 19.70242 | 4844 ft | 256 kts | 255° |
| 2026-05-06 16:11 | 50.06239 | 19.67523 | 4874 ft | 257 kts | 255° |
| 2026-05-06 16:11 | 50.05858 | 19.64803 | 4878 ft | 258 kts | 255° |
| 2026-05-06 16:12 | 50.05472 | 19.62063 | 4875 ft | 259 kts | 256° |
| 2026-05-06 16:12 | 50.05086 | 19.59335 | 4871 ft | 259 kts | 255° |
| 2026-05-06 16:12 | 50.04727 | 19.56584 | 4874 ft | 260 kts | 261° |
| 2026-05-06 16:12 | 50.04834 | 19.53763 | 4875 ft | 263 kts | 276° |
| 2026-05-06 16:13 | 50.05127 | 19.50953 | 4879 ft | 263 kts | 274° |
| 2026-05-06 16:13 | 50.05469 | 19.48198 | 4963 ft | 267 kts | 290° |
| 2026-05-06 16:13 | 50.06565 | 19.45807 | 5036 ft | 280 kts | 313° |
| 2026-05-06 16:13 | 50.08235 | 19.44292 | 4910 ft | 279 kts | 341° |
| 2026-05-06 16:14 | 50.10138 | 19.43774 | 4873 ft | 279 kts | 356° |
| 2026-05-06 16:14 | 50.12037 | 19.44318 | 4871 ft | 282 kts | 25° |
| 2026-05-06 16:14 | 50.13577 | 19.46155 | 4871 ft | 280 kts | 54° |
| 2026-05-06 16:14 | 50.14457 | 19.48826 | 4873 ft | 278 kts | 74° |
| 2026-05-06 16:15 | 50.15057 | 19.51689 | 4871 ft | 278 kts | 76° |
| 2026-05-06 16:15 | 50.15508 | 19.54594 | 4876 ft | 274 kts | 82° |
| 2026-05-06 16:15 | 50.15859 | 19.57503 | 4872 ft | 274 kts | 82° |
| 2026-05-06 16:15 | 50.16190 | 19.60435 | 4869 ft | 274 kts | 83° |
| 2026-05-06 16:16 | 50.16516 | 19.63380 | 4871 ft | 277 kts | 82° |
| 2026-05-06 16:16 | 50.16844 | 19.66339 | 4871 ft | 276 kts | 82° |
| 2026-05-06 16:16 | 50.17174 | 19.69288 | 4845 ft | 276 kts | 82° |
| 2026-05-06 16:16 | 50.17505 | 19.72236 | 4849 ft | 277 kts | 82° |
| 2026-05-06 16:17 | 50.17838 | 19.75203 | 4847 ft | 277 kts | 82° |
| 2026-05-06 16:17 | 50.18167 | 19.78150 | 4846 ft | 276 kts | 82° |
| 2026-05-06 16:17 | 50.18497 | 19.81103 | 4844 ft | 277 kts | 82° |
| 2026-05-06 16:17 | 50.18828 | 19.84053 | 4848 ft | 277 kts | 82° |
| 2026-05-06 16:18 | 50.19160 | 19.87007 | 4845 ft | 276 kts | 82° |
| 2026-05-06 16:18 | 50.19492 | 19.89963 | 4847 ft | 276 kts | 83° |
| 2026-05-06 16:18 | 50.19822 | 19.92920 | 4845 ft | 276 kts | 82° |
| 2026-05-06 16:18 | 50.20150 | 19.95879 | 4854 ft | 276 kts | 82° |
| 2026-05-06 16:19 | 50.20470 | 19.98774 | 4854 ft | 274 kts | 82° |
| 2026-05-06 16:19 | 50.20796 | 20.01725 | 4861 ft | 276 kts | 82° |
| 2026-05-06 16:19 | 50.21121 | 20.04673 | 4861 ft | 276 kts | 82° |
| 2026-05-06 16:19 | 50.21447 | 20.07629 | 4854 ft | 276 kts | 82° |
| 2026-05-06 16:20 | 50.21771 | 20.10578 | 4865 ft | 277 kts | 82° |
| 2026-05-06 16:20 | 50.22097 | 20.13561 | 4865 ft | 278 kts | 82° |
| 2026-05-06 16:20 | 50.22417 | 20.16519 | 4866 ft | 276 kts | 82° |
| 2026-05-06 16:20 | 50.22737 | 20.19467 | 4869 ft | 275 kts | 82° |
| 2026-05-06 16:21 | 50.23057 | 20.22420 | 4869 ft | 274 kts | 82° |
| 2026-05-06 16:21 | 50.23375 | 20.25360 | 4881 ft | 274 kts | 84° |
| 2026-05-06 16:21 | 50.23419 | 20.27312 | 4879 ft | 270 kts | 100° |
| 2026-05-06 16:21 | 50.22819 | 20.30019 | 4879 ft | 258 kts | 126° |
| 2026-05-06 16:22 | 50.21645 | 20.31937 | 4879 ft | 238 kts | 150° |
| 2026-05-06 16:22 | 50.20159 | 20.32945 | 4882 ft | 232 kts | 171° |
| 2026-05-06 16:22 | 50.18055 | 20.33519 | 4884 ft | 230 kts | 184° |
| 2026-05-06 16:22 | 50.16997 | 20.33273 | 4884 ft | 227 kts | 201° |
| 2026-05-06 16:23 | 50.15671 | 20.32022 | 4876 ft | 224 kts | 226° |
| 2026-05-06 16:23 | 50.14840 | 20.29981 | 4876 ft | 226 kts | 251° |
| 2026-05-06 16:23 | 50.14490 | 20.27601 | 4870 ft | 225 kts | 257° |
| 2026-05-06 16:23 | 50.14174 | 20.25234 | 4869 ft | 227 kts | 257° |
| 2026-05-06 16:24 | 50.13848 | 20.22802 | 4874 ft | 226 kts | 257° |
| 2026-05-06 16:24 | 50.13527 | 20.20432 | 4874 ft | 227 kts | 256° |
| 2026-05-06 16:24 | 50.13201 | 20.18026 | 4870 ft | 226 kts | 257° |
| 2026-05-06 16:24 | 50.12870 | 20.15596 | 4866 ft | 226 kts | 256° |
| 2026-05-06 16:25 | 50.12554 | 20.13296 | 4863 ft | 212 kts | 257° |
| 2026-05-06 16:25 | 50.12254 | 20.11099 | 4674 ft | 204 kts | 257° |
| 2026-05-06 16:25 | 50.11961 | 20.08953 | 4425 ft | 202 kts | 256° |
| 2026-05-06 16:25 | 50.11670 | 20.06813 | 4162 ft | 201 kts | 257° |
| 2026-05-06 16:26 | 50.11381 | 20.04692 | 3903 ft | 199 kts | 256° |
| 2026-05-06 16:26 | 50.11098 | 20.02618 | 3646 ft | 193 kts | 256° |
| 2026-05-06 16:26 | 50.10821 | 20.00593 | 3400 ft | 190 kts | 255° |
| 2026-05-06 16:26 | 50.10549 | 19.98606 | 3170 ft | 183 kts | 255° |
| 2026-05-06 16:27 | 50.10295 | 19.96751 | 2952 ft | 164 kts | 256° |
| 2026-05-06 16:27 | 50.10070 | 19.95106 | 2723 ft | 148 kts | 256° |
| 2026-05-06 16:27 | 50.09859 | 19.93578 | 2518 ft | 141 kts | 255° |
| 2026-05-06 16:27 | 50.09655 | 19.92095 | 2343 ft | 139 kts | 255° |
| 2026-05-06 16:28 | 50.09451 | 19.90616 | 2146 ft | 139 kts | 256° |
| 2026-05-06 16:28 | 50.09247 | 19.89135 | 1976 ft | 139 kts | 255° |
| 2026-05-06 16:28 | 50.09044 | 19.87671 | 1783 ft | 140 kts | 256° |
| 2026-05-06 16:28 | 50.08839 | 19.86185 | 1622 ft | 140 kts | 256° |
| 2026-05-06 16:29 | 50.08626 | 19.84647 | 1402 ft | 146 kts | 253° |
| 2026-05-06 16:29 | 50.08417 | 19.83130 | 1221 ft | 144 kts | 247° |
| 2026-05-06 16:29 | 50.08202 | 19.81595 | 1019 ft | 150 kts | 253° |
| 2026-05-06 16:29 | 50.07988 | 19.80014 | 851 ft | 145 kts | 250° |
| 2026-05-06 16:30 | 50.07784 | 19.78649 | 801 ft | 114 kts | 252° |
| 2026-05-06 16:30 | 50.07679 | 19.77926 | 797 ft | 91 kts | 258° |
| 2026-05-06 16:30 | 50.07556 | 19.77021 | 802 ft | 35 kts | 261° |
| 2026-05-06 16:30 | 50.07541 | 19.76893 | 802 ft | 1 kts | 246° |
| 2026-05-06 16:31 | 50.07534 | 19.76876 | 803 ft | 5 kts | 236° |
| 2026-05-06 16:31 | 50.07486 | 19.76847 | 802 ft | 12 kts | 174° |
| 2026-05-06 16:31 | 50.07380 | 19.76884 | 800 ft | 16 kts | 161° |
| 2026-05-06 16:31 | 50.07323 | 19.76931 | 800 ft | 9 kts | 125° |
| 2026-05-06 16:32 | 50.07320 | 19.77049 | 800 ft | 12 kts | 81° |
| 2026-05-06 16:32 | 50.07342 | 19.77207 | 800 ft | 17 kts | 78° |
| 2026-05-06 16:32 | 50.07366 | 19.77385 | 800 ft | 16 kts | 78° |
| 2026-05-06 16:32 | 50.07390 | 19.77557 | 800 ft | 17 kts | 78° |
| 2026-05-06 16:33 | 50.07416 | 19.77740 | 800 ft | 18 kts | 77° |
| 2026-05-06 16:33 | 50.07441 | 19.77920 | 800 ft | 18 kts | 77° |
| 2026-05-06 16:33 | 50.07469 | 19.78115 | 800 ft | 19 kts | 79° |
| 2026-05-06 16:34 | 50.07525 | 19.78527 | 800 ft | 20 kts | 77° |
| 2026-05-06 16:34 | 50.07556 | 19.78741 | 800 ft | 20 kts | 77° |
| 2026-05-06 16:34 | 50.07583 | 19.78944 | 800 ft | 17 kts | 82° |
| 2026-05-06 16:34 | 50.07604 | 19.79118 | 800 ft | 17 kts | 77° |
| 2026-05-06 16:35 | 50.07634 | 19.79300 | 800 ft | 17 kts | 76° |
| 2026-05-06 16:35 | 50.07638 | 19.79329 | 800 ft | 3 kts | 76° |
| 2026-05-06 16:35 | 50.07647 | 19.79382 | 800 ft | 6 kts | 76° |
| 2026-05-06 16:35 | 50.07656 | 19.79457 | 800 ft | 8 kts | 79° |
| 2026-05-06 16:36 | 50.07669 | 19.79553 | 800 ft | 10 kts | 78° |
| 2026-05-06 16:36 | 50.07685 | 19.79669 | 800 ft | 12 kts | 78° |
| 2026-05-06 16:36 | 50.07702 | 19.79797 | 800 ft | 10 kts | 82° |
| 2026-05-06 16:36 | 50.07666 | 19.79879 | 800 ft | 10 kts | 155° |
| 2026-05-06 16:37 | 50.07594 | 19.79905 | 800 ft | 12 kts | 168° |
| 2026-05-06 16:37 | 50.07522 | 19.79940 | 800 ft | 9 kts | 137° |
| 2026-05-06 16:37 | 50.07517 | 19.80035 | 800 ft | 10 kts | 81° |
| 2026-05-06 16:37 | 50.07532 | 19.80142 | 800 ft | 8 kts | 77° |
| 2026-05-06 16:38 | 50.07537 | 19.80187 | 800 ft | 0 kts | 91° |
| 2026-05-06 16:38 | 50.07536 | 19.80189 | 800 ft | 0 kts | 105° |
| 2026-05-06 16:38 | 50.07536 | 19.80192 | 800 ft | 0 kts | 97° |
| 2026-05-06 16:39 | 50.07537 | 19.80194 | 800 ft | 0 kts | 82° |
| 2026-05-06 16:39 | 50.07541 | 19.80214 | 800 ft | 4 kts | 75° |
| 2026-05-06 16:39 | 50.07543 | 19.80245 | 800 ft | 2 kts | 100° |
| 2026-05-06 16:39 | 50.07531 | 19.80261 | 800 ft | 3 kts | 148° |
| 2026-05-06 16:40 | 50.07508 | 19.80270 | 800 ft | 3 kts | 167° |
| 2026-05-06 16:40 | 50.07502 | 19.80272 | 800 ft | 0 kts | 168° |